createdAt,value
2018-03-25T00:01:50.822Z,100417.11
2018-03-25T00:04:18.472Z,100421.84
2018-03-25T00:06:46.471Z,100425.27
2018-03-25T00:09:14.082Z,100425.89
2018-03-25T00:11:41.701Z,100424.97
2018-03-25T00:14:09.311Z,100424.88
2018-03-25T00:16:36.934Z,100416.19
2018-03-25T00:19:04.701Z,100415.45
2018-03-25T00:21:32.286Z,100420.66
2018-03-25T00:24:00.353Z,100420.56
2018-03-25T00:26:28.298Z,100421.71
2018-03-25T00:28:56.465Z,100424.24
2018-03-25T00:31:24.406Z,100423.48
2018-03-25T00:33:52.501Z,100426.95
2018-03-25T00:36:20.790Z,100424.61
2018-03-25T00:38:48.432Z,100427.67
2018-03-25T00:41:16.080Z,100427.05
2018-03-25T00:43:43.941Z,100431.16
2018-03-25T00:46:11.608Z,100433.64
2018-03-25T00:48:39.451Z,100436.08
2018-03-25T00:51:07.041Z,100428.44
2018-03-25T00:53:34.749Z,100432.39
2018-03-25T00:56:02.774Z,100429.94
2018-03-25T00:58:30.740Z,100430.60
2018-03-25T01:00:58.706Z,100437.25
2018-03-25T01:03:26.293Z,100440.14
2018-03-25T01:05:54.238Z,100439.99
2018-03-25T01:08:21.930Z,100440.52
2018-03-25T01:10:49.528Z,100443.11
2018-03-25T01:13:17.496Z,100445.24
2018-03-25T01:18:52.044Z,100440.61
2018-03-25T01:21:19.702Z,100442.23
2018-03-25T01:23:47.309Z,100446.43
2018-03-25T01:26:15.198Z,100444.98
2018-03-25T01:28:42.803Z,100445.69
2018-03-25T01:31:10.402Z,100444.91
2018-03-25T01:33:38.215Z,100445.28
2018-03-25T01:36:05.866Z,100445.84
2018-03-25T01:38:33.469Z,100440.19
2018-03-25T01:41:01.051Z,100439.40
2018-03-25T01:43:28.667Z,100449.00
2018-03-25T01:45:56.733Z,100442.14
2018-03-25T01:48:24.331Z,100442.83
2018-03-25T01:50:51.929Z,100439.34
2018-03-25T01:53:19.542Z,100442.88
2018-03-25T01:55:47.254Z,100441.68
2018-03-25T01:58:14.913Z,100438.65
2018-03-25T02:00:42.536Z,100446.59
2018-03-25T02:03:10.192Z,100445.55
2018-03-25T02:05:38.160Z,100439.59
2018-03-25T02:08:05.850Z,100439.17
2018-03-25T02:10:33.689Z,100441.72
2018-03-25T02:13:01.348Z,100440.14
2018-03-25T02:15:28.935Z,100431.90
2018-03-25T02:17:56.627Z,100442.18
2018-03-25T02:20:24.238Z,100437.88
2018-03-25T02:22:51.901Z,100444.09
2018-03-25T02:25:19.886Z,100450.02
2018-03-25T02:27:47.569Z,100449.38
2018-03-25T02:30:15.215Z,100455.08
2018-03-25T02:32:42.843Z,100453.99
2018-03-25T02:35:10.432Z,100450.63
2018-03-25T02:37:38.138Z,100455.39
2018-03-25T02:40:05.770Z,100461.01
2018-03-25T02:42:34.131Z,100460.86
2018-03-25T02:45:01.707Z,100459.12
2018-03-25T02:47:29.330Z,100455.77
2018-03-25T02:49:57.074Z,100462.13
2018-03-25T02:52:25.190Z,100464.07
2018-03-25T02:54:52.788Z,100462.57
2018-03-25T02:57:20.428Z,100466.34
2018-03-25T02:59:48.028Z,100455.67
2018-03-25T03:02:15.785Z,100465.42
2018-03-25T03:04:43.379Z,100460.48
2018-03-25T03:07:11.264Z,100465.51
2018-03-25T03:09:39.178Z,100467.01
2018-03-25T03:12:07.045Z,100473.53
2018-03-25T03:14:34.714Z,100465.58
2018-03-25T03:17:02.345Z,100465.70
2018-03-25T03:19:30.192Z,100470.87
2018-03-25T03:21:57.856Z,100472.22
2018-03-25T03:24:25.853Z,100478.30
2018-03-25T03:26:53.586Z,100482.64
2018-03-25T03:29:21.556Z,100480.88
2018-03-25T03:31:49.454Z,100480.77
2018-03-25T03:34:17.052Z,100482.84
2018-03-25T03:36:44.738Z,100483.40
2018-03-25T03:39:12.631Z,100492.02
2018-03-25T03:41:40.657Z,100480.44
2018-03-25T03:44:08.246Z,100484.78
2018-03-25T03:46:35.914Z,100487.23
2018-03-25T03:49:03.561Z,100490.23
2018-03-25T03:51:31.443Z,100489.81
2018-03-25T03:53:59.316Z,100486.48
2018-03-25T03:56:27.282Z,100486.62
2018-03-25T03:58:54.873Z,100484.05
2018-03-25T04:01:22.816Z,100484.50
2018-03-25T04:03:50.473Z,100481.06
2018-03-25T04:06:18.079Z,100485.10
2018-03-25T04:08:45.708Z,100492.48
2018-03-25T04:11:13.414Z,100488.73
2018-03-25T04:13:41.033Z,100489.70
2018-03-25T04:16:08.614Z,100488.92
2018-03-25T04:18:36.338Z,100489.38
2018-03-25T04:21:03.977Z,100498.97
2018-03-25T04:23:31.637Z,100494.92
2018-03-25T04:25:59.540Z,100494.52
2018-03-25T04:28:27.203Z,100498.07
2018-03-25T04:30:55.272Z,100501.19
2018-03-25T04:33:22.866Z,100495.56
2018-03-25T04:35:50.505Z,100499.45
2018-03-25T04:38:18.104Z,100499.45
2018-03-25T04:40:46.124Z,100498.25
2018-03-25T04:43:14.200Z,100500.28
2018-03-25T04:45:41.784Z,100505.15
2018-03-25T04:48:09.400Z,100502.16
2018-03-25T04:50:37.288Z,100507.55
2018-03-25T04:53:04.874Z,100503.65
2018-03-25T04:55:32.524Z,100511.33
2018-03-25T04:58:00.131Z,100501.10
2018-03-25T05:00:27.870Z,100512.13
2018-03-25T05:02:55.474Z,100500.28
2018-03-25T05:05:23.055Z,100500.21
2018-03-25T05:07:51.031Z,100502.83
2018-03-25T05:10:18.740Z,100501.22
2018-03-25T05:12:46.339Z,100508.59
2018-03-25T05:15:14.323Z,100507.81
2018-03-25T05:17:42.035Z,100508.52
2018-03-25T05:20:09.999Z,100512.42
2018-03-25T05:22:37.576Z,100509.72
2018-03-25T05:25:05.248Z,100511.74
2018-03-25T05:27:33.036Z,100519.42
2018-03-25T05:30:00.707Z,100512.16
2018-03-25T05:32:28.570Z,100520.77
2018-03-25T05:34:56.210Z,100519.23
2018-03-25T05:37:23.808Z,100524.36
2018-03-25T05:39:51.465Z,100523.69
2018-03-25T05:42:19.060Z,100533.80
2018-03-25T05:44:46.842Z,100530.95
2018-03-25T05:47:14.583Z,100532.45
2018-03-25T05:49:42.375Z,100534.99
2018-03-25T05:52:10.046Z,100534.73
2018-03-25T05:54:37.725Z,100538.10
2018-03-25T05:57:05.317Z,100547.77
2018-03-25T05:59:32.941Z,100547.39
2018-03-25T06:02:00.688Z,100548.33
2018-03-25T06:04:28.694Z,100558.03
2018-03-25T06:06:56.559Z,100557.06
2018-03-25T06:09:24.474Z,100558.78
2018-03-25T06:11:52.087Z,100561.48
2018-03-25T06:14:19.707Z,100557.98
2018-03-25T06:16:47.418Z,100565.23
2018-03-25T06:19:15.001Z,100560.13
2018-03-25T06:21:42.677Z,100565.78
2018-03-25T06:24:10.689Z,100567.09
2018-03-25T06:26:38.347Z,100570.99
2018-03-25T06:29:05.940Z,100578.75
2018-03-25T06:31:33.635Z,100582.35
2018-03-25T06:34:01.219Z,100586.51
2018-03-25T06:36:28.814Z,100592.51
2018-03-25T06:38:56.439Z,100594.91
2018-03-25T06:41:24.570Z,100598.77
2018-03-25T06:43:52.227Z,100604.80
2018-03-25T06:46:19.900Z,100607.73
2018-03-25T06:48:47.612Z,100609.41
2018-03-25T06:51:15.271Z,100615.97
2018-03-25T06:53:42.907Z,100617.70
2018-03-25T06:56:10.535Z,100619.65
2018-03-25T06:58:38.394Z,100620.81
2018-03-25T07:01:06.029Z,100624.83
2018-03-25T07:03:34.023Z,100627.11
2018-03-25T07:06:01.891Z,100623.81
2018-03-25T07:08:29.527Z,100632.55
2018-03-25T07:10:57.272Z,100634.30
2018-03-25T07:13:25.284Z,100637.83
2018-03-25T07:15:53.255Z,100632.50
2018-03-25T07:18:20.870Z,100632.50
2018-03-25T07:20:48.486Z,100643.67
2018-03-25T07:23:17.266Z,100641.58
2018-03-25T07:25:45.897Z,100643.70
2018-03-25T07:28:14.521Z,100645.36
2018-03-25T07:30:42.200Z,100648.54
2018-03-25T07:33:10.923Z,100644.94
2018-03-25T07:35:38.630Z,100655.25
2018-03-25T07:38:06.438Z,100658.95
2018-03-25T07:40:34.060Z,100657.52
2018-03-25T07:43:02.149Z,100662.84
2018-03-25T07:45:29.814Z,100666.70
2018-03-25T07:47:57.547Z,100665.95
2018-03-25T07:50:25.153Z,100668.27
2018-03-25T07:52:52.775Z,100666.47
2018-03-25T07:55:20.424Z,100677.92
2018-03-25T07:57:48.031Z,100677.84
2018-03-25T08:00:15.861Z,100679.89
2018-03-25T08:02:43.996Z,100680.45
2018-03-25T08:05:11.589Z,100676.72
2018-03-25T08:07:39.178Z,100678.97
2018-03-25T08:10:06.879Z,100691.60
2018-03-25T08:12:34.516Z,100689.91
2018-03-25T08:15:02.354Z,100694.14
2018-03-25T08:17:30.024Z,100691.50
2018-03-25T08:19:57.905Z,100695.17
2018-03-25T08:22:25.736Z,100700.02
2018-03-25T08:24:53.426Z,100698.84
2018-03-25T08:27:21.065Z,100704.00
2018-03-25T08:29:48.685Z,100708.27
2018-03-25T08:32:16.265Z,100709.91
2018-03-25T08:34:43.980Z,100706.95
2018-03-25T08:37:11.650Z,100713.73
2018-03-25T08:39:39.906Z,100725.95
2018-03-25T08:42:08.055Z,100724.41
2018-03-25T08:44:35.653Z,100724.09
2018-03-25T08:47:03.235Z,100726.60
2018-03-25T08:49:30.965Z,100724.63
2018-03-25T08:51:58.628Z,100733.29
2018-03-25T08:54:26.257Z,100728.44
2018-03-25T08:56:54.287Z,100740.27
2018-03-25T08:59:22.250Z,100728.92
2018-03-25T09:01:49.902Z,100736.84
2018-03-25T09:04:17.525Z,100739.86
2018-03-25T09:06:45.210Z,100744.60
2018-03-25T09:09:12.865Z,100749.69
2018-03-25T09:11:40.470Z,100748.80
2018-03-25T09:14:08.081Z,100751.34
2018-03-25T09:16:36.160Z,100750.62
2018-03-25T09:19:03.767Z,100748.22
2018-03-25T09:21:31.448Z,100748.95
2018-03-25T09:23:59.111Z,100754.78
2018-03-25T09:26:26.938Z,100754.90
2018-03-25T09:28:54.535Z,100755.42
2018-03-25T09:31:22.465Z,100752.33
2018-03-25T09:33:50.355Z,100750.45
2018-03-25T09:36:18.310Z,100753.42
2018-03-25T09:38:45.968Z,100754.25
2018-03-25T09:41:13.590Z,100749.03
2018-03-25T09:43:41.187Z,100754.19
2018-03-25T09:46:08.842Z,100752.45
2018-03-25T09:48:36.480Z,100750.67
2018-03-25T09:51:04.105Z,100755.91
2018-03-25T09:53:35.183Z,100759.89
2018-03-25T09:56:02.775Z,100766.23
2018-03-25T09:58:30.396Z,100765.70
2018-03-25T10:01:03.813Z,100769.66
2018-03-25T10:03:31.878Z,100772.87
2018-03-25T10:05:59.620Z,100774.06
2018-03-25T10:08:29.823Z,100769.78
2018-03-25T10:10:57.463Z,100766.31
2018-03-25T10:13:25.109Z,100761.89
2018-03-25T10:15:52.754Z,100768.48
2018-03-25T10:18:20.750Z,100772.67
2018-03-25T10:20:48.370Z,100774.23
2018-03-25T10:23:16.390Z,100779.05
2018-03-25T10:25:44.027Z,100777.59
2018-03-25T10:28:11.628Z,100778.42
2018-03-25T10:30:39.269Z,100781.47
2018-03-25T10:33:07.063Z,100783.49
2018-03-25T10:35:35.154Z,100780.09
2018-03-25T10:38:02.828Z,100778.66
2018-03-25T10:40:30.418Z,100781.06
2018-03-25T10:42:58.046Z,100777.88
2018-03-25T10:45:25.655Z,100781.81
2018-03-25T10:47:54.299Z,100788.95
2018-03-25T10:50:21.900Z,100788.64
2018-03-25T10:52:49.496Z,100789.99
2018-03-25T10:55:17.159Z,100788.33
2018-03-25T10:57:44.780Z,100784.98
2018-03-25T11:00:12.491Z,100795.30
2018-03-25T11:02:40.116Z,100791.59
2018-03-25T11:05:07.734Z,100790.45
2018-03-25T11:07:35.745Z,100784.90
2018-03-25T11:10:03.386Z,100784.91
2018-03-25T11:12:31.123Z,100794.43
2018-03-25T11:15:02.697Z,100790.23
2018-03-25T11:17:30.312Z,100793.23
2018-03-25T11:19:58.278Z,100794.17
2018-03-25T11:22:25.962Z,100803.13
2018-03-25T11:24:53.559Z,100787.84
2018-03-25T11:27:21.289Z,100797.97
2018-03-25T11:29:49.138Z,100798.78
2018-03-25T11:32:16.768Z,100806.41
2018-03-25T11:34:44.459Z,100806.11
2018-03-25T11:37:12.108Z,100803.51
2018-03-25T11:39:40.161Z,100806.95
2018-03-25T11:42:08.021Z,100811.75
2018-03-25T11:44:35.694Z,100810.84
2018-03-25T11:47:03.353Z,100817.36
2018-03-25T11:49:31.223Z,100814.11
2018-03-25T11:51:58.863Z,100813.50
2018-03-25T11:54:26.752Z,100813.02
2018-03-25T11:56:54.389Z,100814.80
2018-03-25T11:59:22.479Z,100814.02
2018-03-25T12:01:50.375Z,100808.08
2018-03-25T12:04:17.990Z,100807.19
2018-03-25T12:06:45.639Z,100809.52
2018-03-25T12:09:13.648Z,100814.05
2018-03-25T12:11:41.405Z,100822.67
2018-03-25T12:14:09.387Z,100817.36
2018-03-25T12:16:36.980Z,100812.66
2018-03-25T12:19:05.015Z,100817.45
2018-03-25T12:21:33.088Z,100816.08
2018-03-25T12:24:00.673Z,100816.80
2018-03-25T12:26:28.287Z,100811.28
2018-03-25T12:28:56.582Z,100812.89
2018-03-25T12:31:24.437Z,100814.70
2018-03-25T12:33:52.432Z,100816.58
2018-03-25T12:36:20.391Z,100817.22
2018-03-25T12:38:47.982Z,100815.92
2018-03-25T12:41:15.929Z,100813.90
2018-03-25T12:43:43.546Z,100805.52
2018-03-25T12:46:11.511Z,100805.75
2018-03-25T12:48:39.100Z,100811.38
2018-03-25T12:51:06.703Z,100809.98
2018-03-25T12:53:34.332Z,100807.54
2018-03-25T12:56:02.060Z,100818.26
2018-03-25T12:58:29.660Z,100812.39
2018-03-25T13:00:57.433Z,100806.08
2018-03-25T13:03:25.022Z,100809.91
2018-03-25T13:05:52.876Z,100811.11
2018-03-25T13:08:20.884Z,100804.72
2018-03-25T13:10:48.478Z,100807.34
2018-03-25T13:13:16.079Z,100808.59
2018-03-25T13:15:44.121Z,100810.03
2018-03-25T13:18:11.775Z,100809.61
2018-03-25T13:20:39.427Z,100805.66
2018-03-25T13:23:07.068Z,100812.72
2018-03-25T13:25:34.700Z,100815.66
2018-03-25T13:28:02.370Z,100814.11
2018-03-25T13:30:30.015Z,100816.92
2018-03-25T13:32:57.622Z,100817.48
2018-03-25T13:35:25.514Z,100815.99
2018-03-25T13:37:53.159Z,100819.36
2018-03-25T13:40:20.818Z,100815.37
2018-03-25T13:42:48.436Z,100811.42
2018-03-25T13:45:16.119Z,100816.05
2018-03-25T13:47:43.746Z,100820.57
2018-03-25T13:50:11.371Z,100824.92
2018-03-25T13:52:39.056Z,100820.73
2018-03-25T13:55:06.753Z,100823.92
2018-03-25T13:57:34.349Z,100823.04
2018-03-25T14:00:02.001Z,100829.56
2018-03-25T14:02:29.601Z,100828.08
2018-03-25T14:04:57.467Z,100825.85
2018-03-25T14:07:25.094Z,100836.66
2018-03-25T14:09:52.695Z,100837.06
2018-03-25T14:12:20.329Z,100834.80
2018-03-25T14:14:47.976Z,100836.90
2018-03-25T14:17:15.621Z,100836.58
2018-03-25T14:19:43.461Z,100839.16
2018-03-25T14:22:11.319Z,100832.83
2018-03-25T14:24:38.962Z,100839.45
2018-03-25T14:27:06.557Z,100843.11
2018-03-25T14:29:34.200Z,100835.42
2018-03-25T14:32:01.873Z,100843.05
2018-03-25T14:34:29.471Z,100841.99
2018-03-25T14:36:57.143Z,100844.70
2018-03-25T14:39:24.750Z,100842.38
2018-03-25T14:41:52.708Z,100834.95
2018-03-25T14:44:20.365Z,100842.48
2018-03-25T14:46:47.970Z,100841.81
2018-03-25T14:49:15.568Z,100848.16
2018-03-25T14:51:43.306Z,100856.05
2018-03-25T14:54:11.049Z,100853.72
2018-03-25T14:56:38.658Z,100855.87
2018-03-25T14:59:06.283Z,100860.97
2018-03-25T15:01:33.919Z,100860.55
2018-03-25T15:04:01.525Z,100859.27
2018-03-25T15:06:29.300Z,100861.32
2018-03-25T15:08:56.942Z,100861.25
2018-03-25T15:11:24.937Z,100857.52
2018-03-25T15:13:52.570Z,100858.92
2018-03-25T15:16:20.226Z,100858.05
2018-03-25T15:18:47.830Z,100866.04
2018-03-25T15:21:15.444Z,100858.62
2018-03-25T15:23:43.089Z,100862.28
2018-03-25T15:26:10.703Z,100862.38
2018-03-25T15:28:38.400Z,100863.57
2018-03-25T15:31:06.264Z,100860.05
2018-03-25T15:33:33.974Z,100860.77
2018-03-25T15:36:01.999Z,100862.12
2018-03-25T15:38:29.623Z,100858.23
2018-03-25T15:40:57.332Z,100863.00
2018-03-25T15:43:25.185Z,100865.64
2018-03-25T15:45:52.831Z,100864.89
2018-03-25T15:48:20.468Z,100871.03
2018-03-25T15:50:48.479Z,100875.81
2018-03-25T15:53:16.147Z,100876.67
2018-03-25T15:55:43.808Z,100882.30
2018-03-25T15:58:11.661Z,100886.16
2018-03-25T16:00:39.241Z,100890.02
2018-03-25T16:03:06.924Z,100890.72
2018-03-25T16:05:34.525Z,100889.27
2018-03-25T16:08:02.355Z,100886.42
2018-03-25T16:10:29.997Z,100885.28
2018-03-25T16:12:57.634Z,100884.30
2018-03-25T16:15:25.350Z,100885.46
2018-03-25T16:17:52.932Z,100879.59
2018-03-25T16:20:20.610Z,100886.65
2018-03-25T16:22:48.245Z,100886.58
2018-03-25T16:25:15.974Z,100883.45
2018-03-25T16:27:43.618Z,100890.67
2018-03-25T16:30:11.247Z,100902.88
2018-03-25T16:32:38.884Z,100903.41
2018-03-25T16:35:06.507Z,100903.72
2018-03-25T16:37:34.106Z,100910.49
2018-03-25T16:40:01.817Z,100914.58
2018-03-25T16:42:29.477Z,100915.16
2018-03-25T16:44:57.377Z,100911.63
2018-03-25T16:47:24.977Z,100913.34
2018-03-25T16:49:52.891Z,100913.09
2018-03-25T16:52:20.599Z,100924.30
2018-03-25T16:54:48.252Z,100927.47
2018-03-25T16:57:15.864Z,100923.92
2018-03-25T16:59:43.918Z,100933.00
2018-03-25T17:02:11.514Z,100933.14
2018-03-25T17:04:39.137Z,100927.13
2018-03-25T17:07:06.779Z,100931.86
2018-03-25T17:09:34.755Z,100936.02
2018-03-25T17:12:02.363Z,100937.16
2018-03-25T17:14:29.986Z,100938.61
2018-03-25T17:16:57.678Z,100939.92
2018-03-25T17:19:25.446Z,100949.19
2018-03-25T17:21:53.119Z,100944.86
2018-03-25T17:24:21.090Z,100947.06
2018-03-25T17:26:48.701Z,100946.02
2018-03-25T17:29:16.603Z,100954.03
2018-03-25T17:31:44.245Z,100951.78
2018-03-25T17:34:11.872Z,100953.19
2018-03-25T17:36:39.473Z,100956.28
2018-03-25T17:39:07.371Z,100957.83
2018-03-25T17:41:34.966Z,100964.89
2018-03-25T17:44:02.761Z,100960.77
2018-03-25T17:46:30.660Z,100962.57
2018-03-25T17:48:58.253Z,100970.02
2018-03-25T17:51:25.917Z,100969.05
2018-03-25T17:53:53.548Z,100973.14
2018-03-25T17:56:21.151Z,100981.48
2018-03-25T17:58:48.773Z,100980.09
2018-03-25T18:01:16.375Z,100988.02
2018-03-25T18:03:43.993Z,100988.63
2018-03-25T18:06:11.588Z,100987.31
2018-03-25T18:08:39.227Z,101001.02
2018-03-25T18:11:07.182Z,101001.05
2018-03-25T18:13:35.048Z,101005.33
2018-03-25T18:16:02.715Z,101006.22
2018-03-25T18:18:30.681Z,101019.69
2018-03-25T18:20:58.357Z,101015.32
2018-03-25T18:23:25.977Z,101025.06
2018-03-25T18:26:04.665Z,101022.35
2018-03-25T18:28:32.597Z,101024.94
2018-03-25T18:31:00.212Z,101028.91
2018-03-25T18:33:27.908Z,101027.73
2018-03-25T18:35:55.593Z,101028.70
2018-03-25T18:38:23.230Z,101032.64
2018-03-25T18:40:50.861Z,101040.10
2018-03-25T18:43:18.550Z,101046.45
2018-03-25T18:45:46.377Z,101041.16
2018-03-25T18:48:13.974Z,101048.27
2018-03-25T18:50:41.944Z,101049.65
2018-03-25T18:53:09.626Z,101046.56
2018-03-25T18:55:39.065Z,101050.42
2018-03-25T18:58:06.946Z,101062.84
2018-03-25T19:00:34.548Z,101056.77
2018-03-25T19:03:02.311Z,101062.31
2018-03-25T19:05:29.906Z,101066.36
2018-03-25T19:07:57.548Z,101067.19
2018-03-25T19:10:25.521Z,101062.45
2018-03-25T19:12:53.507Z,101075.87
2018-03-25T19:15:21.300Z,101071.73
2018-03-25T19:17:48.902Z,101073.02
2018-03-25T19:20:16.657Z,101069.02
2018-03-25T19:22:44.328Z,101070.90
2018-03-25T19:25:11.967Z,101072.66
2018-03-25T19:27:39.627Z,101078.33
2018-03-25T19:30:07.288Z,101072.52
2018-03-25T19:32:35.079Z,101076.86
2018-03-25T19:35:03.019Z,101077.51
2018-03-25T19:37:30.586Z,101077.27
2018-03-25T19:39:58.242Z,101076.18
2018-03-25T19:42:25.873Z,101082.41
2018-03-25T19:44:53.470Z,101077.66
2018-03-25T19:47:21.117Z,101081.30
2018-03-25T19:49:48.755Z,101080.77
2018-03-25T19:52:16.365Z,101083.78
2018-03-25T19:54:43.998Z,101086.62
2018-03-25T19:57:11.588Z,101092.55
2018-03-25T19:59:39.243Z,101087.32
2018-03-25T20:02:06.872Z,101088.96
2018-03-25T20:04:34.864Z,101094.38
2018-03-25T20:07:02.462Z,101098.08
2018-03-25T20:09:30.102Z,101099.18
2018-03-25T20:11:57.806Z,101097.87
2018-03-25T20:14:25.782Z,101105.09
2018-03-25T20:16:53.757Z,101102.29
2018-03-25T20:19:21.410Z,101098.81
2018-03-25T20:21:49.428Z,101114.62
2018-03-25T20:24:17.017Z,101114.33
2018-03-25T20:26:44.874Z,101109.52
2018-03-25T20:29:12.508Z,101110.75
2018-03-25T20:31:40.120Z,101113.21
2018-03-25T20:34:07.983Z,101121.56
2018-03-25T20:36:35.627Z,101121.58
2018-03-25T20:39:03.322Z,101119.86
2018-03-25T20:41:30.920Z,101123.93
2018-03-25T20:43:59.006Z,101120.05
2018-03-25T20:46:26.619Z,101122.34
2018-03-25T20:48:54.272Z,101120.86
2018-03-25T20:51:21.929Z,101116.83
2018-03-25T20:53:49.567Z,101112.83
2018-03-25T20:56:17.231Z,101116.61
2018-03-25T20:58:44.920Z,101113.64
2018-03-25T21:01:12.713Z,101120.67
2018-03-25T21:03:40.322Z,101120.12
2018-03-25T21:06:07.912Z,101124.60
2018-03-25T21:08:35.874Z,101133.78
2018-03-25T21:11:03.468Z,101134.91
2018-03-25T21:13:31.075Z,101135.06
2018-03-25T21:15:59.377Z,101133.98
2018-03-25T21:18:27.017Z,101134.27
2018-03-25T21:20:54.607Z,101132.28
2018-03-25T21:23:22.670Z,101137.55
2018-03-25T21:25:50.288Z,101144.45
2018-03-25T21:28:17.900Z,101143.80
2018-03-25T21:30:45.520Z,101146.93
2018-03-25T21:33:13.173Z,101146.13
2018-03-25T21:35:40.781Z,101140.37
2018-03-25T21:38:08.752Z,101150.38
2018-03-25T21:40:36.418Z,101155.91
2018-03-25T21:43:04.059Z,101149.98
2018-03-25T21:45:31.945Z,101153.38
2018-03-25T21:47:59.630Z,101151.48
2018-03-25T21:50:27.350Z,101152.33
2018-03-25T21:52:55.041Z,101159.06
2018-03-25T21:55:22.916Z,101145.75
2018-03-25T21:57:50.549Z,101152.20
2018-03-25T22:00:18.414Z,101146.31
2018-03-25T22:02:46.057Z,101149.42
2018-03-25T22:05:13.649Z,101148.22
2018-03-25T22:07:41.728Z,101155.61
2018-03-25T22:10:09.584Z,101150.78
2018-03-25T22:12:37.162Z,101151.19
2018-03-25T22:15:04.899Z,101152.13
2018-03-25T22:17:32.503Z,101157.09
2018-03-25T22:20:00.129Z,101155.09
2018-03-25T22:22:28.280Z,101162.23
2018-03-25T22:24:55.933Z,101158.47
2018-03-25T22:27:23.829Z,101163.45
2018-03-25T22:29:51.654Z,101163.72
2018-03-25T22:32:19.293Z,101166.68
2018-03-25T22:34:46.974Z,101161.44
2018-03-25T22:37:14.575Z,101160.36
2018-03-25T22:39:42.190Z,101164.91
2018-03-25T22:42:09.774Z,101162.91
2018-03-25T22:44:37.414Z,101160.62
2018-03-25T22:47:05.069Z,101160.47
2018-03-25T22:49:32.675Z,101165.05
2018-03-25T22:52:00.281Z,101158.46
2018-03-25T22:54:27.892Z,101157.77
2018-03-25T22:56:55.518Z,101156.69
2018-03-25T22:59:23.213Z,101158.57
2018-03-25T23:01:50.804Z,101156.28
2018-03-25T23:04:18.442Z,101153.31
2018-03-25T23:06:46.290Z,101160.95
2018-03-25T23:09:13.888Z,101165.53
2018-03-25T23:11:41.476Z,101164.00
2018-03-25T23:14:09.197Z,101158.23
2018-03-25T23:16:36.854Z,101164.25
2018-03-25T23:19:04.455Z,101160.89
2018-03-25T23:21:32.052Z,101156.70
2018-03-25T23:23:59.695Z,101158.30
2018-03-25T23:26:27.280Z,101162.73
2018-03-25T23:28:55.178Z,101162.98
2018-03-25T23:31:22.869Z,101163.09
2018-03-25T23:33:50.524Z,101171.41
2018-03-25T23:36:18.197Z,101165.72
2018-03-25T23:38:45.793Z,101170.55
2018-03-25T23:41:13.400Z,101177.92
2018-03-25T23:43:41.424Z,101167.70
2018-03-25T23:46:09.032Z,101180.98
2018-03-25T23:48:36.653Z,101169.30
2018-03-25T23:51:04.304Z,101171.56
2018-03-25T23:53:31.906Z,101175.85
2018-03-25T23:55:59.536Z,101167.91
2018-03-25T23:58:27.241Z,101172.34
